sensor_id;sensor_type;location;lat;lon;timestamp;P1;durP1;ratioP1;P2;durP2;ratioP2
9256;SDS011;4665;51.368;6.782;2022-09-03T00:00:53;1.70;;;1.60;;
9256;SDS011;4665;51.368;6.782;2022-09-03T00:03:28;1.40;;;1.40;;
9256;SDS011;4665;51.368;6.782;2022-09-03T00:06:14;1.53;;;1.40;;
9256;SDS011;4665;51.368;6.782;2022-09-03T00:13:38;2.87;;;1.37;;
9256;SDS011;4665;51.368;6.782;2022-09-03T00:16:11;1.63;;;1.53;;
9256;SDS011;4665;51.368;6.782;2022-09-03T00:18:45;1.90;;;1.73;;
9256;SDS011;4665;51.368;6.782;2022-09-03T00:23:52;1.33;;;1.33;;
9256;SDS011;4665;51.368;6.782;2022-09-03T00:26:24;2.63;;;1.60;;
9256;SDS011;4665;51.368;6.782;2022-09-03T00:28:56;1.40;;;1.40;;
9256;SDS011;4665;51.368;6.782;2022-09-03T00:31:45;1.20;;;1.20;;
9256;SDS011;4665;51.368;6.782;2022-09-03T00:34:34;4.90;;;2.13;;
9256;SDS011;4665;51.368;6.782;2022-09-03T00:37:05;2.07;;;1.97;;
9256;SDS011;4665;51.368;6.782;2022-09-03T00:39:32;1.80;;;1.50;;
9256;SDS011;4665;51.368;6.782;2022-09-03T00:47:25;1.57;;;1.40;;
9256;SDS011;4665;51.368;6.782;2022-09-03T01:00:54;1.07;;;1.07;;
9256;SDS011;4665;51.368;6.782;2022-09-03T01:06:18;1.23;;;1.23;;
9256;SDS011;4665;51.368;6.782;2022-09-03T01:20:00;1.30;;;1.30;;
9256;SDS011;4665;51.368;6.782;2022-09-03T01:30:22;1.60;;;1.50;;
9256;SDS011;4665;51.368;6.782;2022-09-03T01:32:59;1.60;;;1.50;;
9256;SDS011;4665;51.368;6.782;2022-09-03T01:35:47;1.10;;;1.10;;
9256;SDS011;4665;51.368;6.782;2022-09-03T01:40:44;2.33;;;1.83;;
9256;SDS011;4665;51.368;6.782;2022-09-03T01:59:33;1.10;;;1.10;;
9256;SDS011;4665;51.368;6.782;2022-09-03T02:07:29;1.00;;;1.00;;
9256;SDS011;4665;51.368;6.782;2022-09-03T02:10:02;1.37;;;1.27;;
9256;SDS011;4665;51.368;6.782;2022-09-03T02:12:33;1.53;;;1.40;;
9256;SDS011;4665;51.368;6.782;2022-09-03T02:15:03;1.27;;;1.23;;
9256;SDS011;4665;51.368;6.782;2022-09-03T02:17:34;1.90;;;1.30;;
9256;SDS011;4665;51.368;6.782;2022-09-03T02:20:03;1.27;;;1.27;;
9256;SDS011;4665;51.368;6.782;2022-09-03T02:22:32;1.60;;;1.50;;
9256;SDS011;4665;51.368;6.782;2022-09-03T02:24:58;1.40;;;1.07;;
9256;SDS011;4665;51.368;6.782;2022-09-03T02:27:24;1.33;;;1.33;;
9256;SDS011;4665;51.368;6.782;2022-09-03T02:29:51;1.83;;;1.23;;
9256;SDS011;4665;51.368;6.782;2022-09-03T02:32:16;2.20;;;1.43;;
9256;SDS011;4665;51.368;6.782;2022-09-03T02:34:42;1.20;;;1.20;;
9256;SDS011;4665;51.368;6.782;2022-09-03T02:37:12;2.03;;;1.23;;
9256;SDS011;4665;51.368;6.782;2022-09-03T02:39:38;1.20;;;1.20;;
9256;SDS011;4665;51.368;6.782;2022-09-03T02:42:04;1.73;;;1.63;;
9256;SDS011;4665;51.368;6.782;2022-09-03T02:44:30;1.53;;;1.43;;
9256;SDS011;4665;51.368;6.782;2022-09-03T02:47:00;2.00;;;1.37;;
9256;SDS011;4665;51.368;6.782;2022-09-03T02:49:27;2.40;;;1.73;;
9256;SDS011;4665;51.368;6.782;2022-09-03T02:51:56;1.33;;;1.33;;
9256;SDS011;4665;51.368;6.782;2022-09-03T02:54:24;1.57;;;1.30;;
9256;SDS011;4665;51.368;6.782;2022-09-03T02:56:51;1.23;;;1.23;;
9256;SDS011;4665;51.368;6.782;2022-09-03T02:59:16;1.33;;;1.23;;
9256;SDS011;4665;51.368;6.782;2022-09-03T03:01:42;1.10;;;1.10;;
9256;SDS011;4665;51.368;6.782;2022-09-03T03:04:07;1.50;;;1.50;;
9256;SDS011;4665;51.368;6.782;2022-09-03T03:06:33;1.47;;;1.20;;
9256;SDS011;4665;51.368;6.782;2022-09-03T03:08:58;1.63;;;1.53;;
9256;SDS011;4665;51.368;6.782;2022-09-03T03:11:24;1.53;;;1.40;;
9256;SDS011;4665;51.368;6.782;2022-09-03T03:13:50;1.50;;;1.37;;
9256;SDS011;4665;51.368;6.782;2022-09-03T03:16:16;1.30;;;1.30;;
9256;SDS011;4665;51.368;6.782;2022-09-03T03:18:42;1.10;;;1.00;;
9256;SDS011;4665;51.368;6.782;2022-09-03T03:21:11;1.30;;;1.30;;
9256;SDS011;4665;51.368;6.782;2022-09-03T03:23:41;1.73;;;1.30;;
9256;SDS011;4665;51.368;6.782;2022-09-03T03:26:08;1.10;;;1.10;;
9256;SDS011;4665;51.368;6.782;2022-09-03T03:28:35;1.63;;;1.53;;
9256;SDS011;4665;51.368;6.782;2022-09-03T03:31:11;1.50;;;1.50;;
9256;SDS011;4665;51.368;6.782;2022-09-03T03:33:38;2.93;;;1.47;;
9256;SDS011;4665;51.368;6.782;2022-09-03T03:38:34;1.53;;;1.43;;
9256;SDS011;4665;51.368;6.782;2022-09-03T03:41:05;3.33;;;1.73;;
9256;SDS011;4665;51.368;6.782;2022-09-03T03:43:46;1.50;;;1.40;;
9256;SDS011;4665;51.368;6.782;2022-09-03T03:46:12;2.33;;;1.50;;
9256;SDS011;4665;51.368;6.782;2022-09-03T03:48:39;2.23;;;1.60;;
9256;SDS011;4665;51.368;6.782;2022-09-03T03:51:06;1.60;;;1.50;;
9256;SDS011;4665;51.368;6.782;2022-09-03T03:53:33;1.27;;;1.27;;
9256;SDS011;4665;51.368;6.782;2022-09-03T03:56:01;1.37;;;1.33;;
9256;SDS011;4665;51.368;6.782;2022-09-03T03:58:28;1.33;;;1.33;;
9256;SDS011;4665;51.368;6.782;2022-09-03T04:00:55;1.43;;;1.37;;
9256;SDS011;4665;51.368;6.782;2022-09-03T04:03:29;1.33;;;1.33;;
9256;SDS011;4665;51.368;6.782;2022-09-03T04:05:57;1.50;;;1.50;;
9256;SDS011;4665;51.368;6.782;2022-09-03T04:08:25;2.63;;;1.53;;
9256;SDS011;4665;51.368;6.782;2022-09-03T04:10:51;1.40;;;1.30;;
9256;SDS011;4665;51.368;6.782;2022-09-03T04:13:16;1.63;;;1.53;;
9256;SDS011;4665;51.368;6.782;2022-09-03T04:15:42;2.10;;;1.60;;
9256;SDS011;4665;51.368;6.782;2022-09-03T04:18:08;1.80;;;1.70;;
9256;SDS011;4665;51.368;6.782;2022-09-03T04:20:36;1.67;;;1.60;;
9256;SDS011;4665;51.368;6.782;2022-09-03T04:23:02;1.40;;;1.30;;
9256;SDS011;4665;51.368;6.782;2022-09-03T04:25:29;1.60;;;1.50;;
9256;SDS011;4665;51.368;6.782;2022-09-03T04:27:55;2.00;;;1.77;;
9256;SDS011;4665;51.368;6.782;2022-09-03T04:30:20;2.50;;;1.80;;
9256;SDS011;4665;51.368;6.782;2022-09-03T04:32:49;1.90;;;1.57;;
9256;SDS011;4665;51.368;6.782;2022-09-03T04:35:22;1.83;;;1.73;;
9256;SDS011;4665;51.368;6.782;2022-09-03T04:37:49;1.73;;;1.63;;
9256;SDS011;4665;51.368;6.782;2022-09-03T04:40:15;1.60;;;1.50;;
9256;SDS011;4665;51.368;6.782;2022-09-03T04:42:40;1.50;;;1.40;;
9256;SDS011;4665;51.368;6.782;2022-09-03T04:45:06;1.60;;;1.50;;
9256;SDS011;4665;51.368;6.782;2022-09-03T04:47:32;1.67;;;1.57;;
9256;SDS011;4665;51.368;6.782;2022-09-03T04:49:57;1.50;;;1.50;;
9256;SDS011;4665;51.368;6.782;2022-09-03T04:52:23;3.30;;;1.50;;
9256;SDS011;4665;51.368;6.782;2022-09-03T04:54:49;1.70;;;1.60;;
9256;SDS011;4665;51.368;6.782;2022-09-03T04:57:15;1.60;;;1.50;;
9256;SDS011;4665;51.368;6.782;2022-09-03T04:59:40;1.60;;;1.50;;
9256;SDS011;4665;51.368;6.782;2022-09-03T05:02:06;2.57;;;1.70;;
9256;SDS011;4665;51.368;6.782;2022-09-03T05:04:33;2.03;;;1.60;;
9256;SDS011;4665;51.368;6.782;2022-09-03T05:06:58;1.73;;;1.60;;
9256;SDS011;4665;51.368;6.782;2022-09-03T05:09:24;2.20;;;1.90;;
9256;SDS011;4665;51.368;6.782;2022-09-03T05:11:49;3.50;;;1.83;;
9256;SDS011;4665;51.368;6.782;2022-09-03T05:14:15;1.60;;;1.50;;
9256;SDS011;4665;51.368;6.782;2022-09-03T05:16:40;1.70;;;1.60;;
9256;SDS011;4665;51.368;6.782;2022-09-03T05:19:05;2.30;;;1.60;;
9256;SDS011;4665;51.368;6.782;2022-09-03T05:21:32;2.20;;;1.70;;
9256;SDS011;4665;51.368;6.782;2022-09-03T05:24:02;1.87;;;1.70;;
9256;SDS011;4665;51.368;6.782;2022-09-03T05:26:29;2.20;;;1.73;;
9256;SDS011;4665;51.368;6.782;2022-09-03T05:28:59;2.70;;;1.60;;
9256;SDS011;4665;51.368;6.782;2022-09-03T05:31:27;2.10;;;1.80;;
9256;SDS011;4665;51.368;6.782;2022-09-03T05:33:57;1.43;;;1.40;;
9256;SDS011;4665;51.368;6.782;2022-09-03T05:36:25;2.80;;;1.87;;
9256;SDS011;4665;51.368;6.782;2022-09-03T05:38:53;4.00;;;1.90;;
9256;SDS011;4665;51.368;6.782;2022-09-03T05:41:19;3.43;;;1.50;;
9256;SDS011;4665;51.368;6.782;2022-09-03T05:43:48;2.17;;;1.97;;
9256;SDS011;4665;51.368;6.782;2022-09-03T05:46:24;2.17;;;1.67;;
9256;SDS011;4665;51.368;6.782;2022-09-03T05:48:55;2.20;;;1.83;;
9256;SDS011;4665;51.368;6.782;2022-09-03T05:51:24;2.43;;;1.80;;
9256;SDS011;4665;51.368;6.782;2022-09-03T05:53:49;1.60;;;1.50;;
9256;SDS011;4665;51.368;6.782;2022-09-03T05:56:18;1.97;;;1.87;;
9256;SDS011;4665;51.368;6.782;2022-09-03T05:58:51;2.10;;;2.00;;
9256;SDS011;4665;51.368;6.782;2022-09-03T06:01:22;1.93;;;1.70;;
9256;SDS011;4665;51.368;6.782;2022-09-03T06:03:55;1.80;;;1.70;;
9256;SDS011;4665;51.368;6.782;2022-09-03T06:06:40;1.90;;;1.80;;
9256;SDS011;4665;51.368;6.782;2022-09-03T06:09:08;1.83;;;1.73;;
9256;SDS011;4665;51.368;6.782;2022-09-03T06:11:36;2.20;;;1.80;;
9256;SDS011;4665;51.368;6.782;2022-09-03T06:14:04;1.70;;;1.60;;
9256;SDS011;4665;51.368;6.782;2022-09-03T06:16:31;2.20;;;2.03;;
9256;SDS011;4665;51.368;6.782;2022-09-03T06:18:58;2.10;;;2.00;;
9256;SDS011;4665;51.368;6.782;2022-09-03T06:21:24;2.33;;;2.03;;
9256;SDS011;4665;51.368;6.782;2022-09-03T06:23:50;2.97;;;1.90;;
9256;SDS011;4665;51.368;6.782;2022-09-03T06:26:16;1.90;;;1.80;;
9256;SDS011;4665;51.368;6.782;2022-09-03T06:28:43;2.70;;;1.90;;
9256;SDS011;4665;51.368;6.782;2022-09-03T06:31:10;4.33;;;2.17;;
9256;SDS011;4665;51.368;6.782;2022-09-03T06:33:38;4.27;;;2.20;;
9256;SDS011;4665;51.368;6.782;2022-09-03T06:36:07;3.70;;;2.10;;
9256;SDS011;4665;51.368;6.782;2022-09-03T06:38:36;4.80;;;2.03;;
9256;SDS011;4665;51.368;6.782;2022-09-03T06:41:06;3.30;;;1.60;;
9256;SDS011;4665;51.368;6.782;2022-09-03T06:43:37;1.50;;;1.50;;
9256;SDS011;4665;51.368;6.782;2022-09-03T06:46:09;4.10;;;1.47;;
9256;SDS011;4665;51.368;6.782;2022-09-03T06:48:37;1.60;;;1.50;;
9256;SDS011;4665;51.368;6.782;2022-09-03T06:51:05;1.40;;;1.30;;
9256;SDS011;4665;51.368;6.782;2022-09-03T06:53:32;1.27;;;1.27;;
9256;SDS011;4665;51.368;6.782;2022-09-03T06:56:00;1.53;;;1.43;;
9256;SDS011;4665;51.368;6.782;2022-09-03T06:58:33;1.50;;;1.40;;
9256;SDS011;4665;51.368;6.782;2022-09-03T07:03:27;4.40;;;1.63;;
9256;SDS011;4665;51.368;6.782;2022-09-03T07:05:53;1.60;;;1.50;;
9256;SDS011;4665;51.368;6.782;2022-09-03T07:08:25;1.13;;;1.03;;
9256;SDS011;4665;51.368;6.782;2022-09-03T07:10:50;2.43;;;1.50;;
9256;SDS011;4665;51.368;6.782;2022-09-03T07:13:16;1.57;;;1.47;;
9256;SDS011;4665;51.368;6.782;2022-09-03T07:15:42;1.53;;;1.43;;
9256;SDS011;4665;51.368;6.782;2022-09-03T07:18:08;1.43;;;1.37;;
9256;SDS011;4665;51.368;6.782;2022-09-03T07:20:34;1.50;;;1.40;;
9256;SDS011;4665;51.368;6.782;2022-09-03T07:22:59;1.60;;;1.50;;
9256;SDS011;4665;51.368;6.782;2022-09-03T07:25:25;1.90;;;1.30;;
9256;SDS011;4665;51.368;6.782;2022-09-03T07:27:51;1.57;;;1.23;;
9256;SDS011;4665;51.368;6.782;2022-09-03T07:30:16;1.17;;;1.07;;
9256;SDS011;4665;51.368;6.782;2022-09-03T07:32:44;1.77;;;1.50;;
9256;SDS011;4665;51.368;6.782;2022-09-03T07:35:10;2.23;;;1.20;;
9256;SDS011;4665;51.368;6.782;2022-09-03T07:40:57;1.10;;;1.00;;
9256;SDS011;4665;51.368;6.782;2022-09-03T07:43:27;2.67;;;1.50;;
9256;SDS011;4665;51.368;6.782;2022-09-03T07:45:54;1.60;;;1.20;;
9256;SDS011;4665;51.368;6.782;2022-09-03T07:48:21;1.43;;;1.13;;
9256;SDS011;4665;51.368;6.782;2022-09-03T07:50:47;1.33;;;1.00;;
9256;SDS011;4665;51.368;6.782;2022-09-03T07:53:14;1.00;;;1.00;;
9256;SDS011;4665;51.368;6.782;2022-09-03T07:55:41;1.10;;;1.10;;
9256;SDS011;4665;51.368;6.782;2022-09-03T07:58:08;1.43;;;1.33;;
9256;SDS011;4665;51.368;6.782;2022-09-03T08:00:34;1.70;;;1.50;;
9256;SDS011;4665;51.368;6.782;2022-09-03T08:03:00;1.17;;;1.00;;
9256;SDS011;4665;51.368;6.782;2022-09-03T08:05:33;2.43;;;1.20;;
9256;SDS011;4665;51.368;6.782;2022-09-03T08:11:02;2.23;;;1.50;;
9256;SDS011;4665;51.368;6.782;2022-09-03T08:13:33;1.33;;;1.33;;
9256;SDS011;4665;51.368;6.782;2022-09-03T08:15:58;1.10;;;1.10;;
9256;SDS011;4665;51.368;6.782;2022-09-03T08:18:25;2.40;;;1.50;;
9256;SDS011;4665;51.368;6.782;2022-09-03T08:20:51;2.90;;;1.40;;
9256;SDS011;4665;51.368;6.782;2022-09-03T08:23:16;1.07;;;1.07;;
9256;SDS011;4665;51.368;6.782;2022-09-03T08:25:42;2.90;;;1.33;;
9256;SDS011;4665;51.368;6.782;2022-09-03T08:28:08;1.63;;;1.10;;
9256;SDS011;4665;51.368;6.782;2022-09-03T08:30:34;2.93;;;1.20;;
9256;SDS011;4665;51.368;6.782;2022-09-03T08:33:00;1.40;;;1.40;;
9256;SDS011;4665;51.368;6.782;2022-09-03T08:35:28;1.00;;;1.00;;
9256;SDS011;4665;51.368;6.782;2022-09-03T08:37:58;2.53;;;1.37;;
9256;SDS011;4665;51.368;6.782;2022-09-03T08:40:29;2.73;;;1.53;;
9256;SDS011;4665;51.368;6.782;2022-09-03T08:43:14;1.00;;;1.00;;
9256;SDS011;4665;51.368;6.782;2022-09-03T08:45:42;2.03;;;1.20;;
9256;SDS011;4665;51.368;6.782;2022-09-03T08:48:10;1.50;;;1.40;;
9256;SDS011;4665;51.368;6.782;2022-09-03T08:50:40;1.67;;;1.20;;
9256;SDS011;4665;51.368;6.782;2022-09-03T08:56:17;2.00;;;1.70;;
9256;SDS011;4665;51.368;6.782;2022-09-03T08:58:48;1.90;;;1.20;;
9256;SDS011;4665;51.368;6.782;2022-09-03T09:06:41;1.20;;;1.10;;
9256;SDS011;4665;51.368;6.782;2022-09-03T09:11:54;1.93;;;1.33;;
9256;SDS011;4665;51.368;6.782;2022-09-03T09:14:35;1.60;;;1.50;;
9256;SDS011;4665;51.368;6.782;2022-09-03T09:22:37;1.50;;;1.40;;
9256;SDS011;4665;51.368;6.782;2022-09-03T09:25:07;1.73;;;1.60;;
9256;SDS011;4665;51.368;6.782;2022-09-03T09:27:40;1.90;;;1.30;;
9256;SDS011;4665;51.368;6.782;2022-09-03T09:30:15;1.87;;;1.30;;
9256;SDS011;4665;51.368;6.782;2022-09-03T09:32:42;1.30;;;1.30;;
9256;SDS011;4665;51.368;6.782;2022-09-03T09:35:10;2.27;;;1.40;;
9256;SDS011;4665;51.368;6.782;2022-09-03T09:37:49;1.73;;;1.63;;
9256;SDS011;4665;51.368;6.782;2022-09-03T09:45:39;1.40;;;1.27;;
9256;SDS011;4665;51.368;6.782;2022-09-03T09:48:08;1.50;;;1.40;;
9256;SDS011;4665;51.368;6.782;2022-09-03T09:50:39;3.47;;;1.37;;
9256;SDS011;4665;51.368;6.782;2022-09-03T09:53:08;3.00;;;1.70;;
9256;SDS011;4665;51.368;6.782;2022-09-03T09:55:48;1.40;;;1.30;;
9256;SDS011;4665;51.368;6.782;2022-09-03T09:58:17;1.43;;;1.33;;
9256;SDS011;4665;51.368;6.782;2022-09-03T10:01:01;2.50;;;1.70;;
9256;SDS011;4665;51.368;6.782;2022-09-03T10:03:27;1.77;;;1.67;;
9256;SDS011;4665;51.368;6.782;2022-09-03T10:06:06;1.80;;;1.70;;
9256;SDS011;4665;51.368;6.782;2022-09-03T10:08:52;1.70;;;1.58;;
9256;SDS011;4665;51.368;6.782;2022-09-03T10:11:31;2.07;;;1.67;;
9256;SDS011;4665;51.368;6.782;2022-09-03T10:13:58;1.73;;;1.63;;
9256;SDS011;4665;51.368;6.782;2022-09-03T10:16:29;2.17;;;1.70;;
9256;SDS011;4665;51.368;6.782;2022-09-03T10:19:12;1.40;;;1.37;;
9256;SDS011;4665;51.368;6.782;2022-09-03T10:27:22;1.40;;;1.40;;
9256;SDS011;4665;51.368;6.782;2022-09-03T10:29:48;2.20;;;1.70;;
9256;SDS011;4665;51.368;6.782;2022-09-03T10:37:41;4.22;;;1.73;;
9256;SDS011;4665;51.368;6.782;2022-09-03T10:40:14;1.80;;;1.70;;
9256;SDS011;4665;51.368;6.782;2022-09-03T10:42:45;4.35;;;1.80;;
9256;SDS011;4665;51.368;6.782;2022-09-03T10:59:45;3.60;;;1.75;;
9256;SDS011;4665;51.368;6.782;2022-09-03T11:04:51;2.00;;;1.87;;
9256;SDS011;4665;51.368;6.782;2022-09-03T11:07:27;1.70;;;1.60;;
9256;SDS011;4665;51.368;6.782;2022-09-03T11:12:54;3.30;;;2.00;;
9256;SDS011;4665;51.368;6.782;2022-09-03T11:15:25;3.03;;;2.03;;
9256;SDS011;4665;51.368;6.782;2022-09-03T11:20:46;2.10;;;2.00;;
9256;SDS011;4665;51.368;6.782;2022-09-03T11:23:15;2.07;;;1.90;;
9256;SDS011;4665;51.368;6.782;2022-09-03T11:25:48;1.87;;;1.80;;
9256;SDS011;4665;51.368;6.782;2022-09-03T11:33:29;4.30;;;2.00;;
9256;SDS011;4665;51.368;6.782;2022-09-03T11:35:58;2.38;;;2.28;;
9256;SDS011;4665;51.368;6.782;2022-09-03T11:38:26;2.15;;;1.88;;
9256;SDS011;4665;51.368;6.782;2022-09-03T11:41:03;2.28;;;2.00;;
9256;SDS011;4665;51.368;6.782;2022-09-03T11:43:40;2.00;;;1.90;;
9256;SDS011;4665;51.368;6.782;2022-09-03T11:46:26;2.40;;;2.20;;
9256;SDS011;4665;51.368;6.782;2022-09-03T11:49:07;2.30;;;2.10;;
9256;SDS011;4665;51.368;6.782;2022-09-03T11:51:36;2.28;;;2.17;;
9256;SDS011;4665;51.368;6.782;2022-09-03T11:56:48;2.50;;;2.28;;
9256;SDS011;4665;51.368;6.782;2022-09-03T11:59:23;2.08;;;1.92;;
9256;SDS011;4665;51.368;6.782;2022-09-03T12:02:01;1.77;;;1.67;;
9256;SDS011;4665;51.368;6.782;2022-09-03T12:04:43;4.72;;;1.90;;
9256;SDS011;4665;51.368;6.782;2022-09-03T12:07:18;1.73;;;1.63;;
9256;SDS011;4665;51.368;6.782;2022-09-03T12:18:23;2.25;;;1.75;;
9256;SDS011;4665;51.368;6.782;2022-09-03T12:23:26;5.15;;;1.80;;
9256;SDS011;4665;51.368;6.782;2022-09-03T12:25:52;1.75;;;1.70;;
9256;SDS011;4665;51.368;6.782;2022-09-03T12:28:19;2.53;;;1.73;;
9256;SDS011;4665;51.368;6.782;2022-09-03T12:30:50;1.90;;;1.80;;
9256;SDS011;4665;51.368;6.782;2022-09-03T12:33:17;1.88;;;1.77;;
9256;SDS011;4665;51.368;6.782;2022-09-03T12:35:57;2.08;;;1.98;;
9256;SDS011;4665;51.368;6.782;2022-09-03T12:38:24;4.00;;;2.00;;
9256;SDS011;4665;51.368;6.782;2022-09-03T12:40:51;2.67;;;2.30;;
9256;SDS011;4665;51.368;6.782;2022-09-03T12:43:18;2.47;;;2.27;;
9256;SDS011;4665;51.368;6.782;2022-09-03T12:45:48;2.10;;;2.00;;
9256;SDS011;4665;51.368;6.782;2022-09-03T12:48:18;2.00;;;1.90;;
9256;SDS011;4665;51.368;6.782;2022-09-03T12:50:45;2.92;;;1.88;;
9256;SDS011;4665;51.368;6.782;2022-09-03T12:53:13;1.90;;;1.80;;
9256;SDS011;4665;51.368;6.782;2022-09-03T12:58:18;2.20;;;2.00;;
9256;SDS011;4665;51.368;6.782;2022-09-03T13:00:49;2.10;;;2.00;;
9256;SDS011;4665;51.368;6.782;2022-09-03T13:06:01;1.80;;;1.70;;
9256;SDS011;4665;51.368;6.782;2022-09-03T13:08:32;2.22;;;2.03;;
9256;SDS011;4665;51.368;6.782;2022-09-03T13:11:05;1.95;;;1.85;;
9256;SDS011;4665;51.368;6.782;2022-09-03T13:13:32;2.67;;;1.93;;
9256;SDS011;4665;51.368;6.782;2022-09-03T13:29:58;2.33;;;2.22;;
9256;SDS011;4665;51.368;6.782;2022-09-03T13:32:35;2.30;;;2.20;;
9256;SDS011;4665;51.368;6.782;2022-09-03T13:35:08;2.53;;;2.38;;
9256;SDS011;4665;51.368;6.782;2022-09-03T13:46:02;2.38;;;2.28;;
9256;SDS011;4665;51.368;6.782;2022-09-03T13:48:38;2.40;;;2.30;;
9256;SDS011;4665;51.368;6.782;2022-09-03T13:54:35;2.47;;;2.28;;
9256;SDS011;4665;51.368;6.782;2022-09-03T13:57:08;3.70;;;2.28;;
9256;SDS011;4665;51.368;6.782;2022-09-03T13:59:50;2.70;;;2.60;;
9256;SDS011;4665;51.368;6.782;2022-09-03T14:15:42;2.25;;;2.13;;
9256;SDS011;4665;51.368;6.782;2022-09-03T14:21:06;2.33;;;2.15;;
9256;SDS011;4665;51.368;6.782;2022-09-03T14:26:28;2.83;;;2.20;;
9256;SDS011;4665;51.368;6.782;2022-09-03T14:28:57;2.15;;;2.05;;
9256;SDS011;4665;51.368;6.782;2022-09-03T14:31:34;2.88;;;2.30;;
9256;SDS011;4665;51.368;6.782;2022-09-03T14:42:27;2.70;;;2.50;;
9256;SDS011;4665;51.368;6.782;2022-09-03T14:54:01;2.50;;;2.30;;
9256;SDS011;4665;51.368;6.782;2022-09-03T14:57:08;2.70;;;2.40;;
9256;SDS011;4665;51.368;6.782;2022-09-03T15:07:31;2.25;;;2.05;;
9256;SDS011;4665;51.368;6.782;2022-09-03T15:10:07;2.30;;;2.20;;
9256;SDS011;4665;51.368;6.782;2022-09-03T15:12:42;2.55;;;2.30;;
9256;SDS011;4665;51.368;6.782;2022-09-03T15:15:20;2.10;;;2.00;;
9256;SDS011;4665;51.368;6.782;2022-09-03T15:20:54;2.22;;;2.13;;
9256;SDS011;4665;51.368;6.782;2022-09-03T15:28:54;2.40;;;2.30;;
9256;SDS011;4665;51.368;6.782;2022-09-03T15:36:34;2.83;;;2.55;;
9256;SDS011;4665;51.368;6.782;2022-09-03T15:39:12;2.33;;;2.13;;
9256;SDS011;4665;51.368;6.782;2022-09-03T15:44:20;1.85;;;1.83;;
9256;SDS011;4665;51.368;6.782;2022-09-03T15:52:16;2.40;;;2.20;;
9256;SDS011;4665;51.368;6.782;2022-09-03T15:55:05;2.35;;;2.25;;
9256;SDS011;4665;51.368;6.782;2022-09-03T15:57:36;3.08;;;2.30;;
9256;SDS011;4665;51.368;6.782;2022-09-03T16:00:12;9.10;;;2.08;;
9256;SDS011;4665;51.368;6.782;2022-09-03T16:02:54;2.17;;;2.08;;
9256;SDS011;4665;51.368;6.782;2022-09-03T16:08:09;2.15;;;1.90;;
9256;SDS011;4665;51.368;6.782;2022-09-03T16:10:57;2.80;;;2.40;;
9256;SDS011;4665;51.368;6.782;2022-09-03T16:13:38;2.35;;;2.15;;
9256;SDS011;4665;51.368;6.782;2022-09-03T16:16:21;2.33;;;2.22;;
9256;SDS011;4665;51.368;6.782;2022-09-03T16:19:04;2.33;;;2.15;;
9256;SDS011;4665;51.368;6.782;2022-09-03T16:24:46;2.40;;;2.20;;
9256;SDS011;4665;51.368;6.782;2022-09-03T16:29:55;2.65;;;2.20;;
9256;SDS011;4665;51.368;6.782;2022-09-03T16:32:37;2.50;;;2.40;;
9256;SDS011;4665;51.368;6.782;2022-09-03T16:40:50;2.10;;;2.00;;
9256;SDS011;4665;51.368;6.782;2022-09-03T16:43:43;2.25;;;2.15;;
9256;SDS011;4665;51.368;6.782;2022-09-03T16:46:24;2.30;;;2.20;;
9256;SDS011;4665;51.368;6.782;2022-09-03T16:49:18;2.50;;;2.30;;
9256;SDS011;4665;51.368;6.782;2022-09-03T16:59:42;2.20;;;2.10;;
9256;SDS011;4665;51.368;6.782;2022-09-03T17:15:48;2.95;;;2.20;;
9256;SDS011;4665;51.368;6.782;2022-09-03T17:21:21;2.35;;;2.20;;
9256;SDS011;4665;51.368;6.782;2022-09-03T17:24:12;2.20;;;2.10;;
9256;SDS011;4665;51.368;6.782;2022-09-03T17:27:00;2.50;;;2.30;;
9256;SDS011;4665;51.368;6.782;2022-09-03T17:33:24;2.60;;;2.40;;
9256;SDS011;4665;51.368;6.782;2022-09-03T17:36:16;2.28;;;2.05;;
9256;SDS011;4665;51.368;6.782;2022-09-03T17:38:59;2.95;;;2.05;;
9256;SDS011;4665;51.368;6.782;2022-09-03T17:46:50;5.10;;;2.58;;
9256;SDS011;4665;51.368;6.782;2022-09-03T17:49:47;2.28;;;2.17;;
9256;SDS011;4665;51.368;6.782;2022-09-03T17:54:54;2.17;;;2.07;;
9256;SDS011;4665;51.368;6.782;2022-09-03T18:00:00;2.10;;;2.00;;
9256;SDS011;4665;51.368;6.782;2022-09-03T18:06:27;2.30;;;2.10;;
9256;SDS011;4665;51.368;6.782;2022-09-03T18:08:40;2.50;;;2.30;;
9256;SDS011;4665;51.368;6.782;2022-09-03T18:11:10;2.55;;;2.40;;
9256;SDS011;4665;51.368;6.782;2022-09-03T18:16:27;2.47;;;2.37;;
9256;SDS011;4665;51.368;6.782;2022-09-03T18:19:01;2.53;;;2.43;;
9256;SDS011;4665;51.368;6.782;2022-09-03T18:21:42;2.30;;;2.20;;
9256;SDS011;4665;51.368;6.782;2022-09-03T18:27:34;2.30;;;2.20;;
9256;SDS011;4665;51.368;6.782;2022-09-03T18:30:25;2.88;;;2.42;;
9256;SDS011;4665;51.368;6.782;2022-09-03T18:33:09;2.63;;;2.20;;
9256;SDS011;4665;51.368;6.782;2022-09-03T18:35:53;2.43;;;2.27;;
9256;SDS011;4665;51.368;6.782;2022-09-03T18:38:38;4.00;;;2.50;;
9256;SDS011;4665;51.368;6.782;2022-09-03T18:41:30;2.23;;;2.13;;
9256;SDS011;4665;51.368;6.782;2022-09-03T18:50:41;2.83;;;2.30;;
9256;SDS011;4665;51.368;6.782;2022-09-03T18:56:48;3.67;;;2.20;;
9256;SDS011;4665;51.368;6.782;2022-09-03T18:59:50;2.40;;;2.20;;
9256;SDS011;4665;51.368;6.782;2022-09-03T19:15:37;4.10;;;3.80;;
9256;SDS011;4665;51.368;6.782;2022-09-03T19:21:32;7.03;;;6.33;;
9256;SDS011;4665;51.368;6.782;2022-09-03T19:24:22;2.50;;;2.40;;
9256;SDS011;4665;51.368;6.782;2022-09-03T19:30:04;2.27;;;2.10;;
9256;SDS011;4665;51.368;6.782;2022-09-03T19:33:12;2.17;;;2.00;;
9256;SDS011;4665;51.368;6.782;2022-09-03T19:42:17;3.27;;;2.17;;
9256;SDS011;4665;51.368;6.782;2022-09-03T19:48:10;2.17;;;2.07;;
9256;SDS011;4665;51.368;6.782;2022-09-03T19:51:37;2.97;;;2.43;;
9256;SDS011;4665;51.368;6.782;2022-09-03T19:54:17;2.43;;;2.33;;
9256;SDS011;4665;51.368;6.782;2022-09-03T19:57:05;2.23;;;2.10;;
9256;SDS011;4665;51.368;6.782;2022-09-03T19:59:51;2.40;;;2.20;;
9256;SDS011;4665;51.368;6.782;2022-09-03T20:02:35;2.40;;;2.20;;
9256;SDS011;4665;51.368;6.782;2022-09-03T20:05:21;2.50;;;2.30;;
9256;SDS011;4665;51.368;6.782;2022-09-03T20:08:06;2.40;;;2.20;;
9256;SDS011;4665;51.368;6.782;2022-09-03T20:10:52;2.53;;;2.30;;
9256;SDS011;4665;51.368;6.782;2022-09-03T20:13:20;2.20;;;2.10;;
9256;SDS011;4665;51.368;6.782;2022-09-03T20:18:59;2.47;;;2.37;;
9256;SDS011;4665;51.368;6.782;2022-09-03T20:32:10;4.57;;;2.27;;
9256;SDS011;4665;51.368;6.782;2022-09-03T20:46:28;2.70;;;2.50;;
9256;SDS011;4665;51.368;6.782;2022-09-03T20:49:08;2.50;;;2.30;;
9256;SDS011;4665;51.368;6.782;2022-09-03T20:51:41;2.70;;;2.37;;
9256;SDS011;4665;51.368;6.782;2022-09-03T21:07:36;2.43;;;2.20;;
9256;SDS011;4665;51.368;6.782;2022-09-03T21:10:28;2.30;;;2.20;;
9256;SDS011;4665;51.368;6.782;2022-09-03T21:15:40;2.40;;;2.20;;
9256;SDS011;4665;51.368;6.782;2022-09-03T21:26:54;2.00;;;1.90;;
9256;SDS011;4665;51.368;6.782;2022-09-03T21:29:28;2.37;;;2.20;;
9256;SDS011;4665;51.368;6.782;2022-09-03T21:32:03;2.10;;;2.00;;
9256;SDS011;4665;51.368;6.782;2022-09-03T21:34:41;2.20;;;2.10;;
9256;SDS011;4665;51.368;6.782;2022-09-03T21:37:13;2.10;;;2.00;;
9256;SDS011;4665;51.368;6.782;2022-09-03T21:45:05;2.10;;;2.00;;
9256;SDS011;4665;51.368;6.782;2022-09-03T21:47:42;2.13;;;2.03;;
9256;SDS011;4665;51.368;6.782;2022-09-03T21:58:29;1.93;;;1.83;;
9256;SDS011;4665;51.368;6.782;2022-09-03T22:01:13;2.53;;;2.33;;
9256;SDS011;4665;51.368;6.782;2022-09-03T22:03:44;2.20;;;2.10;;
9256;SDS011;4665;51.368;6.782;2022-09-03T22:06:15;2.23;;;2.13;;
9256;SDS011;4665;51.368;6.782;2022-09-03T22:09:21;2.17;;;2.07;;
9256;SDS011;4665;51.368;6.782;2022-09-03T22:12:11;2.47;;;2.00;;
9256;SDS011;4665;51.368;6.782;2022-09-03T22:15:01;2.07;;;1.97;;
9256;SDS011;4665;51.368;6.782;2022-09-03T22:20:28;2.13;;;2.03;;
9256;SDS011;4665;51.368;6.782;2022-09-03T22:22:55;2.20;;;2.00;;
9256;SDS011;4665;51.368;6.782;2022-09-03T22:25:47;2.10;;;2.00;;
9256;SDS011;4665;51.368;6.782;2022-09-03T22:28:31;2.20;;;2.10;;
9256;SDS011;4665;51.368;6.782;2022-09-03T22:31:11;2.33;;;2.00;;
9256;SDS011;4665;51.368;6.782;2022-09-03T22:33:47;2.10;;;2.00;;
9256;SDS011;4665;51.368;6.782;2022-09-03T22:36:20;2.50;;;2.40;;
9256;SDS011;4665;51.368;6.782;2022-09-03T22:39:00;2.10;;;2.00;;
9256;SDS011;4665;51.368;6.782;2022-09-03T22:47:03;2.43;;;2.33;;
9256;SDS011;4665;51.368;6.782;2022-09-03T23:00:33;2.40;;;2.30;;
9256;SDS011;4665;51.368;6.782;2022-09-03T23:03:10;2.47;;;2.37;;
9256;SDS011;4665;51.368;6.782;2022-09-03T23:05:55;2.30;;;2.20;;